sensor_id;sensor_type;location;lat;lon;timestamp;pressure;altitude;pressure_sealevel;temperature;humidity
10392;BME280;5242;49.244;6.774;2023-03-04T00:07:16;100328.94;;;-1.24;nan
10392;BME280;5242;49.244;6.774;2023-03-04T00:15:09;100338.50;;;-1.28;nan
10392;BME280;5242;49.244;6.774;2023-03-04T00:23:01;100336.59;;;-1.38;nan
10392;BME280;5242;49.244;6.774;2023-03-04T00:30:52;100339.13;;;-1.53;nan
10392;BME280;5242;49.244;6.774;2023-03-04T00:38:44;100339.91;;;-1.52;nan
10392;BME280;5242;49.244;6.774;2023-03-04T00:46:36;100337.25;;;-1.52;nan
10392;BME280;5242;49.244;6.774;2023-03-04T00:54:28;100342.19;;;-1.66;nan
10392;BME280;5242;49.244;6.774;2023-03-04T01:02:19;100339.22;;;-1.70;nan
10392;BME280;5242;49.244;6.774;2023-03-04T01:10:13;100338.88;;;-1.79;nan
10392;BME280;5242;49.244;6.774;2023-03-04T01:18:05;100335.88;;;-1.82;nan
10392;BME280;5242;49.244;6.774;2023-03-04T01:25:57;100324.84;;;-1.91;nan
10392;BME280;5242;49.244;6.774;2023-03-04T01:33:48;100319.41;;;-2.01;nan
10392;BME280;5242;49.244;6.774;2023-03-04T01:41:40;100311.06;;;-2.05;nan
10392;BME280;5242;49.244;6.774;2023-03-04T01:49:32;100302.31;;;-2.27;nan
10392;BME280;5242;49.244;6.774;2023-03-04T01:57:25;100293.88;;;-2.41;nan
10392;BME280;5242;49.244;6.774;2023-03-04T02:05:17;100286.59;;;-2.46;nan
10392;BME280;5242;49.244;6.774;2023-03-04T02:13:10;100298.91;;;-2.45;nan
10392;BME280;5242;49.244;6.774;2023-03-04T02:29:03;100275.94;;;-2.68;nan
10392;BME280;5242;49.244;6.774;2023-03-04T02:36:55;100273.44;;;-2.74;nan
10392;BME280;5242;49.244;6.774;2023-03-04T02:44:47;100282.38;;;-2.86;nan
10392;BME280;5242;49.244;6.774;2023-03-04T02:52:40;100281.50;;;-2.91;nan
10392;BME280;5242;49.244;6.774;2023-03-04T03:00:32;100272.66;;;-3.14;nan
10392;BME280;5242;49.244;6.774;2023-03-04T03:08:24;100279.78;;;-3.19;nan
10392;BME280;5242;49.244;6.774;2023-03-04T03:16:16;100272.09;;;-3.16;nan
10392;BME280;5242;49.244;6.774;2023-03-04T03:24:08;100267.41;;;-3.25;nan
10392;BME280;5242;49.244;6.774;2023-03-04T03:31:59;100267.34;;;-3.31;nan
10392;BME280;5242;49.244;6.774;2023-03-04T03:39:51;100279.53;;;-3.35;nan
10392;BME280;5242;49.244;6.774;2023-03-04T03:47:44;100267.09;;;-3.46;nan
10392;BME280;5242;49.244;6.774;2023-03-04T03:55:36;100270.66;;;-3.57;nan
10392;BME280;5242;49.244;6.774;2023-03-04T04:03:27;100273.72;;;-3.65;nan
10392;BME280;5242;49.244;6.774;2023-03-04T04:11:20;100273.06;;;-3.73;nan
10392;BME280;5242;49.244;6.774;2023-03-04T04:19:18;100275.66;;;-3.78;nan
10392;BME280;5242;49.244;6.774;2023-03-04T04:27:11;100279.25;;;-3.84;nan
10392;BME280;5242;49.244;6.774;2023-03-04T04:35:03;100276.03;;;-3.86;nan
10392;BME280;5242;49.244;6.774;2023-03-04T04:42:55;100278.03;;;-3.93;nan
10392;BME280;5242;49.244;6.774;2023-03-04T04:50:53;100283.59;;;-3.95;nan
10392;BME280;5242;49.244;6.774;2023-03-04T04:58:45;100287.72;;;-4.04;nan
10392;BME280;5242;49.244;6.774;2023-03-04T05:06:37;100292.97;;;-4.21;nan
10392;BME280;5242;49.244;6.774;2023-03-04T05:14:30;100296.00;;;-4.29;nan
10392;BME280;5242;49.244;6.774;2023-03-04T05:22:21;100304.31;;;-4.25;nan
10392;BME280;5242;49.244;6.774;2023-03-04T05:30:13;100292.91;;;-4.38;nan
10392;BME280;5242;49.244;6.774;2023-03-04T05:38:07;100298.97;;;-4.54;nan
10392;BME280;5242;49.244;6.774;2023-03-04T05:45:59;100308.22;;;-4.56;nan
10392;BME280;5242;49.244;6.774;2023-03-04T05:53:51;100306.72;;;-4.52;nan
10392;BME280;5242;49.244;6.774;2023-03-04T06:01:42;100317.34;;;-4.52;nan
10392;BME280;5242;49.244;6.774;2023-03-04T06:09:34;100325.06;;;-4.51;nan
10392;BME280;5242;49.244;6.774;2023-03-04T06:17:26;100317.56;;;-4.54;nan
10392;BME280;5242;49.244;6.774;2023-03-04T06:25:18;100328.44;;;-4.55;nan
10392;BME280;5242;49.244;6.774;2023-03-04T06:33:10;100334.91;;;-4.51;nan
10392;BME280;5242;49.244;6.774;2023-03-04T06:41:10;100337.56;;;-4.40;nan
10392;BME280;5242;49.244;6.774;2023-03-04T06:49:02;100338.28;;;-4.16;nan
10392;BME280;5242;49.244;6.774;2023-03-04T06:56:54;100358.16;;;-3.78;nan
10392;BME280;5242;49.244;6.774;2023-03-04T07:04:46;100359.28;;;-3.28;nan
10392;BME280;5242;49.244;6.774;2023-03-04T07:12:38;100367.19;;;-2.66;nan
10392;BME280;5242;49.244;6.774;2023-03-04T07:20:30;100375.88;;;-1.87;nan
10392;BME280;5242;49.244;6.774;2023-03-04T07:28:22;100375.09;;;-1.01;nan
10392;BME280;5242;49.244;6.774;2023-03-04T07:36:14;100380.91;;;0.59;nan
10392;BME280;5242;49.244;6.774;2023-03-04T07:44:07;100379.81;;;2.12;nan
10392;BME280;5242;49.244;6.774;2023-03-04T07:52:03;100377.91;;;3.31;nan
10392;BME280;5242;49.244;6.774;2023-03-04T07:59:55;100374.31;;;4.31;nan
10392;BME280;5242;49.244;6.774;2023-03-04T08:07:47;100369.69;;;5.35;nan
10392;BME280;5242;49.244;6.774;2023-03-04T08:15:40;100374.75;;;6.11;nan
10392;BME280;5242;49.244;6.774;2023-03-04T08:23:33;100362.72;;;7.61;nan
10392;BME280;5242;49.244;6.774;2023-03-04T08:31:24;100366.50;;;9.30;nan
10392;BME280;5242;49.244;6.774;2023-03-04T08:39:17;100364.47;;;10.88;nan
10392;BME280;5242;49.244;6.774;2023-03-04T08:47:09;100357.00;;;10.97;nan
10392;BME280;5242;49.244;6.774;2023-03-04T08:55:01;100365.72;;;11.24;nan
10392;BME280;5242;49.244;6.774;2023-03-04T09:02:53;100355.44;;;12.15;nan
10392;BME280;5242;49.244;6.774;2023-03-04T09:10:46;100345.41;;;12.88;nan
10392;BME280;5242;49.244;6.774;2023-03-04T09:18:39;100348.63;;;12.50;nan
10392;BME280;5242;49.244;6.774;2023-03-04T09:26:31;100357.13;;;11.59;nan
10392;BME280;5242;49.244;6.774;2023-03-04T09:34:23;100368.06;;;8.67;nan
10392;BME280;5242;49.244;6.774;2023-03-04T09:42:26;100371.03;;;7.02;nan
10392;BME280;5242;49.244;6.774;2023-03-04T09:50:20;100377.03;;;7.93;nan
10392;BME280;5242;49.244;6.774;2023-03-04T09:58:20;100377.44;;;7.06;nan
10392;BME280;5242;49.244;6.774;2023-03-04T10:06:19;100381.44;;;5.72;nan
10392;BME280;5242;49.244;6.774;2023-03-04T10:22:33;100381.09;;;5.32;nan
10392;BME280;5242;49.244;6.774;2023-03-04T10:38:43;100364.28;;;5.35;nan
10392;BME280;5242;49.244;6.774;2023-03-04T10:46:43;100374.69;;;5.28;nan
10392;BME280;5242;49.244;6.774;2023-03-04T10:54:41;100373.22;;;5.03;nan
10392;BME280;5242;49.244;6.774;2023-03-04T11:02:36;100358.31;;;5.06;nan
10392;BME280;5242;49.244;6.774;2023-03-04T11:10:39;100355.78;;;4.95;nan
10392;BME280;5242;49.244;6.774;2023-03-04T11:18:49;100342.88;;;4.92;nan
10392;BME280;5242;49.244;6.774;2023-03-04T11:26:48;100345.41;;;4.70;nan
10392;BME280;5242;49.244;6.774;2023-03-04T11:42:44;100321.28;;;4.92;nan
10392;BME280;5242;49.244;6.774;2023-03-04T12:07:23;100313.47;;;5.37;nan
10392;BME280;5242;49.244;6.774;2023-03-04T12:15:31;100304.47;;;5.56;nan
10392;BME280;5242;49.244;6.774;2023-03-04T12:39:31;100263.44;;;5.54;nan
10392;BME280;5242;49.244;6.774;2023-03-04T12:55:29;100252.63;;;6.40;nan
10392;BME280;5242;49.244;6.774;2023-03-04T13:12:17;100242.22;;;6.56;nan
10392;BME280;5242;49.244;6.774;2023-03-04T13:20:42;100232.63;;;6.27;nan
10392;BME280;5242;49.244;6.774;2023-03-04T13:28:36;100235.97;;;6.47;nan
10392;BME280;5242;49.244;6.774;2023-03-04T13:36:33;100224.88;;;6.35;nan
10392;BME280;5242;49.244;6.774;2023-03-04T13:52:39;100225.00;;;6.29;nan
10392;BME280;5242;49.244;6.774;2023-03-04T14:00:31;100221.19;;;6.30;nan
10392;BME280;5242;49.244;6.774;2023-03-04T14:08:26;100215.06;;;6.16;nan
10392;BME280;5242;49.244;6.774;2023-03-04T14:16:19;100213.03;;;6.22;nan
10392;BME280;5242;49.244;6.774;2023-03-04T14:24:15;100199.81;;;6.20;nan
10392;BME280;5242;49.244;6.774;2023-03-04T14:32:10;100196.13;;;6.16;nan
10392;BME280;5242;49.244;6.774;2023-03-04T14:40:03;100191.56;;;6.25;nan
10392;BME280;5242;49.244;6.774;2023-03-04T14:47:59;100178.28;;;6.15;nan
10392;BME280;5242;49.244;6.774;2023-03-04T14:56:03;100180.28;;;6.01;nan
10392;BME280;5242;49.244;6.774;2023-03-04T15:04:08;100167.09;;;5.85;nan
10392;BME280;5242;49.244;6.774;2023-03-04T15:12:07;100164.78;;;5.79;nan
10392;BME280;5242;49.244;6.774;2023-03-04T15:27:58;100163.34;;;5.59;nan
10392;BME280;5242;49.244;6.774;2023-03-04T15:35:58;100159.38;;;5.42;nan
10392;BME280;5242;49.244;6.774;2023-03-04T15:43:52;100162.59;;;5.44;nan
10392;BME280;5242;49.244;6.774;2023-03-04T15:51:44;100162.38;;;5.41;nan
10392;BME280;5242;49.244;6.774;2023-03-04T15:59:36;100159.00;;;5.35;nan
10392;BME280;5242;49.244;6.774;2023-03-04T16:07:29;100167.03;;;5.27;nan
10392;BME280;5242;49.244;6.774;2023-03-04T16:15:24;100160.31;;;5.24;nan
10392;BME280;5242;49.244;6.774;2023-03-04T16:23:21;100165.63;;;5.29;nan
10392;BME280;5242;49.244;6.774;2023-03-04T16:31:15;100168.50;;;5.33;nan
10392;BME280;5242;49.244;6.774;2023-03-04T16:39:15;100156.41;;;5.30;nan
10392;BME280;5242;49.244;6.774;2023-03-04T16:47:09;100153.88;;;5.34;nan
10392;BME280;5242;49.244;6.774;2023-03-04T16:55:01;100154.72;;;5.34;nan
10392;BME280;5242;49.244;6.774;2023-03-04T17:02:58;100154.81;;;5.29;nan
10392;BME280;5242;49.244;6.774;2023-03-04T17:10:51;100154.41;;;5.22;nan
10392;BME280;5242;49.244;6.774;2023-03-04T17:18:43;100148.13;;;5.13;nan
10392;BME280;5242;49.244;6.774;2023-03-04T17:26:36;100157.13;;;4.94;nan
10392;BME280;5242;49.244;6.774;2023-03-04T17:34:30;100151.81;;;4.75;nan
10392;BME280;5242;49.244;6.774;2023-03-04T17:42:22;100168.00;;;4.62;nan
10392;BME280;5242;49.244;6.774;2023-03-04T17:50:14;100162.19;;;4.54;nan
10392;BME280;5242;49.244;6.774;2023-03-04T17:58:06;100164.47;;;4.47;nan
10392;BME280;5242;49.244;6.774;2023-03-04T18:05:57;100161.78;;;4.47;nan
10392;BME280;5242;49.244;6.774;2023-03-04T18:13:49;100156.00;;;4.40;nan
10392;BME280;5242;49.244;6.774;2023-03-04T18:21:41;100152.47;;;4.40;nan
10392;BME280;5242;49.244;6.774;2023-03-04T18:29:34;100154.56;;;4.29;nan
10392;BME280;5242;49.244;6.774;2023-03-04T18:37:26;100155.75;;;4.23;nan
10392;BME280;5242;49.244;6.774;2023-03-04T18:45:18;100157.34;;;4.24;nan
10392;BME280;5242;49.244;6.774;2023-03-04T18:53:11;100155.53;;;4.19;nan
10392;BME280;5242;49.244;6.774;2023-03-04T19:01:05;100154.13;;;4.22;nan
10392;BME280;5242;49.244;6.774;2023-03-04T19:08:59;100147.16;;;4.21;nan
10392;BME280;5242;49.244;6.774;2023-03-04T19:16:51;100139.56;;;4.23;nan
10392;BME280;5242;49.244;6.774;2023-03-04T19:24:43;100147.53;;;4.14;nan
10392;BME280;5242;49.244;6.774;2023-03-04T19:32:34;100151.50;;;4.03;nan
10392;BME280;5242;49.244;6.774;2023-03-04T19:40:27;100144.50;;;4.02;nan
10392;BME280;5242;49.244;6.774;2023-03-04T19:48:19;100141.91;;;3.97;nan
10392;BME280;5242;49.244;6.774;2023-03-04T19:56:11;100139.28;;;3.91;nan
10392;BME280;5242;49.244;6.774;2023-03-04T20:04:09;100139.06;;;3.88;nan
10392;BME280;5242;49.244;6.774;2023-03-04T20:12:01;100133.16;;;3.86;nan
10392;BME280;5242;49.244;6.774;2023-03-04T20:19:53;100131.47;;;3.90;nan
10392;BME280;5242;49.244;6.774;2023-03-04T20:27:45;100126.53;;;3.97;nan
10392;BME280;5242;49.244;6.774;2023-03-04T20:35:37;100122.00;;;3.92;nan
10392;BME280;5242;49.244;6.774;2023-03-04T20:43:31;100127.47;;;3.87;nan
10392;BME280;5242;49.244;6.774;2023-03-04T20:51:23;100118.59;;;3.87;nan
10392;BME280;5242;49.244;6.774;2023-03-04T20:59:17;100107.09;;;3.81;nan
10392;BME280;5242;49.244;6.774;2023-03-04T21:07:09;100116.91;;;3.91;nan
10392;BME280;5242;49.244;6.774;2023-03-04T21:15:00;100109.91;;;3.90;nan
10392;BME280;5242;49.244;6.774;2023-03-04T21:22:52;100109.22;;;3.84;nan
10392;BME280;5242;49.244;6.774;2023-03-04T21:30:44;100108.66;;;3.68;nan
10392;BME280;5242;49.244;6.774;2023-03-04T21:38:36;100100.56;;;3.68;nan
10392;BME280;5242;49.244;6.774;2023-03-04T21:46:30;100100.97;;;3.76;nan
10392;BME280;5242;49.244;6.774;2023-03-04T21:54:22;100106.97;;;3.73;nan
10392;BME280;5242;49.244;6.774;2023-03-04T22:02:15;100096.09;;;3.78;nan
10392;BME280;5242;49.244;6.774;2023-03-04T22:10:08;100092.81;;;3.81;nan
10392;BME280;5242;49.244;6.774;2023-03-04T22:18:00;100086.50;;;3.72;nan
10392;BME280;5242;49.244;6.774;2023-03-04T22:25:51;100085.50;;;3.67;nan
10392;BME280;5242;49.244;6.774;2023-03-04T22:33:44;100081.13;;;3.72;nan
10392;BME280;5242;49.244;6.774;2023-03-04T22:41:36;100074.63;;;3.73;nan
10392;BME280;5242;49.244;6.774;2023-03-04T22:49:28;100068.44;;;3.72;nan
10392;BME280;5242;49.244;6.774;2023-03-04T22:57:19;100058.47;;;3.73;nan
10392;BME280;5242;49.244;6.774;2023-03-04T23:05:12;100061.47;;;3.71;nan
10392;BME280;5242;49.244;6.774;2023-03-04T23:13:04;100059.94;;;3.65;nan
10392;BME280;5242;49.244;6.774;2023-03-04T23:20:56;100044.56;;;3.65;nan
10392;BME280;5242;49.244;6.774;2023-03-04T23:28:48;100042.19;;;3.64;nan
10392;BME280;5242;49.244;6.774;2023-03-04T23:36:41;100044.38;;;3.62;nan
10392;BME280;5242;49.244;6.774;2023-03-04T23:44:33;100035.78;;;3.60;nan
10392;BME280;5242;49.244;6.774;2023-03-04T23:52:25;100029.97;;;3.53;nan
